Time;durP1;ratioP1;P1;durP2;ratioP2;P2;SDS_P1;SDS_P2;PMS_P1;PMS_P2;Temp;Humidity;BMP_temperature;BMP_pressure;BME280_temperature;BME280_humidity;BME280_pressure;Samples;Min_cycle;Max_cycle;Signal;HPM_P1;HPM_P2
2024/01/14 00:00:20;;;;;;;15.80;7.95;;;;;;;2.76;100.00;100291.47;5053506;28;20049;-83
2024/01/14 00:02:47;;;;;;;16.27;8.07;;;;;;;2.74;100.00;100295.78;5036750;28;20044;-85
2024/01/14 00:05:14;;;;;;;13.50;7.53;;;;;;;2.78;100.00;100295.84;5030475;28;20129;-82
2024/01/14 00:07:43;;;;;;;14.73;7.63;;;;;;;2.78;100.00;100292.38;5034595;28;20047;-81
2024/01/14 00:10:16;;;;;;;13.77;8.43;;;;;;;2.71;100.00;100290.53;5034984;28;20049;-81
2024/01/14 00:12:45;;;;;;;17.63;9.38;;;;;;;2.66;100.00;100300.81;5049412;28;20082;-82
2024/01/14 00:15:17;;;;;;;15.40;8.00;;;;;;;2.67;100.00;100294.78;5032389;28;20140;-83
2024/01/14 00:17:45;;;;;;;15.00;8.23;;;;;;;2.63;100.00;100299.03;5049011;28;20048;-82
2024/01/14 00:20:15;;;;;;;14.30;8.20;;;;;;;2.65;100.00;100296.47;5030390;28;20042;-83
2024/01/14 00:22:44;;;;;;;18.05;8.45;;;;;;;2.67;100.00;100283.56;5029458;28;20052;-81
2024/01/14 00:25:12;;;;;;;17.10;9.20;;;;;;;2.65;100.00;100288.72;5050244;28;20098;-83
2024/01/14 00:27:39;;;;;;;15.05;7.97;;;;;;;2.63;100.00;100272.31;5046088;28;20048;-82
2024/01/14 00:30:08;;;;;;;19.02;8.23;;;;;;;2.62;100.00;100281.78;5034917;28;20037;-82
2024/01/14 00:32:35;;;;;;;16.08;8.82;;;;;;;2.63;100.00;100274.88;5043868;28;20139;-84
2024/01/14 00:35:02;;;;;;;17.38;8.52;;;;;;;2.66;100.00;100277.53;5032053;28;20127;-83
2024/01/14 00:37:30;;;;;;;16.83;9.18;;;;;;;2.67;100.00;100274.09;5033437;28;20048;-83
2024/01/14 00:39:57;;;;;;;22.05;8.35;;;;;;;2.70;100.00;100271.59;5033524;28;20136;-84
2024/01/14 00:42:23;;;;;;;25.88;10.50;;;;;;;2.72;100.00;100269.00;5036776;28;20048;-83
2024/01/14 00:44:50;;;;;;;14.80;8.55;;;;;;;2.69;100.00;100284.47;5034107;28;20040;-82
2024/01/14 00:47:16;;;;;;;22.42;9.65;;;;;;;2.70;100.00;100276.75;5047410;28;20118;-80
2024/01/14 00:49:43;;;;;;;21.95;8.05;;;;;;;2.70;100.00;100276.75;5065032;28;20060;-82
2024/01/14 00:52:13;;;;;;;17.52;8.38;;;;;;;2.68;100.00;100282.72;5010497;28;20037;-83
2024/01/14 00:54:40;;;;;;;15.93;8.60;;;;;;;2.71;100.00;100275.03;5030915;28;20048;-82
2024/01/14 00:59:50;;;;;;;17.65;8.52;;;;;;;2.63;100.00;100260.28;5008177;28;20048;-83
2024/01/14 01:02:16;;;;;;;22.45;8.20;;;;;;;2.62;100.00;100255.94;5024466;28;20612;-83
2024/01/14 01:04:46;;;;;;;16.38;8.55;;;;;;;2.64;100.00;100254.25;5017551;28;21371;-81
2024/01/14 01:07:16;;;;;;;17.55;9.02;;;;;;;2.65;100.00;100255.97;5010346;28;20045;-82
2024/01/14 01:09:44;;;;;;;17.92;8.15;;;;;;;2.68;100.00;100262.06;5013229;28;20408;-81
2024/01/14 01:12:13;;;;;;;17.85;8.27;;;;;;;2.64;100.00;100266.31;5031607;28;20111;-83
2024/01/14 01:14:40;;;;;;;16.58;8.65;;;;;;;2.65;100.00;100258.56;5015902;28;20041;-82
2024/01/14 01:17:10;;;;;;;16.98;8.50;;;;;;;2.67;100.00;100255.16;5008075;28;20139;-83
2024/01/14 01:19:37;;;;;;;15.60;7.90;;;;;;;2.65;100.00;100234.44;5026716;28;20051;-83
2024/01/14 01:22:06;;;;;;;21.13;8.57;;;;;;;2.66;100.00;100233.63;5012681;28;20471;-82
2024/01/14 01:24:33;;;;;;;17.00;8.70;;;;;;;2.69;100.00;100244.00;5026372;28;20044;-82
2024/01/14 01:26:59;;;;;;;15.05;7.97;;;;;;;2.72;100.00;100241.44;5026007;28;20053;-83
2024/01/14 01:29:26;;;;;;;15.07;7.90;;;;;;;2.65;100.00;100227.56;5042809;28;20055;-84
2024/01/14 01:31:52;;;;;;;15.50;8.20;;;;;;;2.65;100.00;100227.56;5024254;28;20037;-82
2024/01/14 01:34:19;;;;;;;15.48;7.72;;;;;;;2.69;100.00;100231.06;5012243;28;20041;-82
2024/01/14 01:36:45;;;;;;;22.20;9.10;;;;;;;2.69;100.00;100220.72;5009123;28;20049;-82
2024/01/14 01:39:14;;;;;;;16.83;9.43;;;;;;;2.66;100.00;100223.28;5013755;28;20048;-82
2024/01/14 01:41:43;;;;;;;17.73;9.18;;;;;;;2.62;100.00;100222.34;5050933;28;20098;-81
2024/01/14 01:44:11;;;;;;;14.43;8.32;;;;;;;2.61;100.00;100220.59;5027378;28;20082;-81
2024/01/14 01:46:38;;;;;;;18.30;9.52;;;;;;;2.64;100.00;100224.94;5027779;28;20081;-80
2024/01/14 01:49:06;;;;;;;17.58;8.82;;;;;;;2.55;100.00;100217.91;5022931;28;20044;-81
2024/01/14 01:51:33;;;;;;;12.48;7.38;;;;;;;2.57;100.00;100218.81;5026339;28;20049;-81
2024/01/14 01:54:00;;;;;;;16.40;8.38;;;;;;;2.58;100.00;100219.69;5037134;28;20107;-83
2024/01/14 01:56:27;;;;;;;17.85;9.38;;;;;;;2.58;100.00;100209.34;5007327;28;20037;-83
2024/01/14 01:58:54;;;;;;;15.75;7.93;;;;;;;2.60;100.00;100210.25;5029134;28;20071;-83
2024/01/14 02:01:23;;;;;;;19.98;8.93;;;;;;;2.59;100.00;100214.53;5020557;28;20091;-84
2024/01/14 02:03:53;;;;;;;17.88;8.38;;;;;;;2.59;100.00;100206.78;5023418;28;20050;-81
2024/01/14 02:06:21;;;;;;;20.45;8.70;;;;;;;2.55;100.00;100209.28;5011664;28;20048;-80
2024/01/14 02:08:48;;;;;;;17.90;8.93;;;;;;;2.57;100.00;100213.66;5025648;28;20049;-81
2024/01/14 02:11:16;;;;;;;16.52;8.40;;;;;;;2.53;100.00;100209.28;5024896;28;20415;-83
2024/01/14 02:13:43;;;;;;;13.30;7.28;;;;;;;2.55;100.00;100210.16;5035593;28;20034;-80
2024/01/14 02:16:09;;;;;;;17.58;9.45;;;;;;;2.52;100.00;100193.75;5022982;28;20049;-82
2024/01/14 02:18:37;;;;;;;13.02;7.57;;;;;;;2.48;100.00;100198.84;5037367;28;20125;-82
2024/01/14 02:21:03;;;;;;;18.17;7.60;;;;;;;2.54;100.00;100198.06;5028936;28;20040;-82
2024/01/14 02:23:36;;;;;;;16.55;8.63;;;;;;;2.52;100.00;100198.94;5017044;28;20033;-82
2024/01/14 02:26:03;;;;;;;15.95;8.20;;;;;;;2.54;100.00;100194.63;5016337;28;20046;-82
2024/01/14 02:28:29;;;;;;;23.42;9.13;;;;;;;2.57;100.00;100194.66;5013526;28;20037;-83
2024/01/14 02:30:57;;;;;;;23.65;10.07;;;;;;;2.59;100.00;100198.16;5011144;28;20063;-82
2024/01/14 02:33:25;;;;;;;14.65;7.70;;;;;;;2.59;100.00;100196.44;5007830;28;20677;-82
2024/01/14 02:35:51;;;;;;;15.00;8.63;;;;;;;2.52;100.00;100189.44;5005843;28;20057;-83
2024/01/14 02:38:18;;;;;;;14.77;8.52;;;;;;;2.53;100.00;100188.59;5026626;28;20510;-84
2024/01/14 02:40:44;;;;;;;20.25;8.27;;;;;;;2.56;100.00;100182.63;5009842;28;20553;-82
2024/01/14 02:43:14;;;;;;;17.33;8.60;;;;;;;2.53;100.00;100190.31;5009984;28;20553;-82
2024/01/14 02:45:41;;;;;;;19.38;8.38;;;;;;;2.60;100.00;100190.44;5025486;28;20052;-82
2024/01/14 02:48:08;;;;;;;16.88;8.50;;;;;;;2.62;100.00;100183.59;5039320;28;21108;-82
2024/01/14 02:50:35;;;;;;;13.25;8.63;;;;;;;2.59;100.00;100183.50;5037551;28;20080;-82
2024/01/14 02:53:02;;;;;;;14.98;7.50;;;;;;;2.59;100.00;100170.59;5027056;28;20036;-82
2024/01/14 02:55:32;;;;;;;17.90;8.27;;;;;;;2.63;100.00;100181.84;5039328;28;20108;-82
2024/01/14 02:57:58;;;;;;;19.80;8.02;;;;;;;2.62;100.00;100177.53;5028596;28;20101;-82
2024/01/14 03:00:25;;;;;;;18.83;9.18;;;;;;;2.62;100.00;100174.94;5045300;28;20048;-82
2024/01/14 03:02:56;;;;;;;18.33;7.78;;;;;;;2.60;100.00;100176.66;5029787;28;20032;-84
2024/01/14 03:05:27;;;;;;;18.75;7.97;;;;;;;2.59;100.00;100187.81;5045018;28;20044;-83
2024/01/14 03:07:59;;;;;;;17.90;8.15;;;;;;;2.55;100.00;100184.31;5049521;28;20149;-80
2024/01/14 03:10:29;;;;;;;17.92;8.57;;;;;;;2.54;100.00;100186.88;5033075;28;20453;-83
2024/01/14 03:12:58;;;;;;;16.02;7.72;;;;;;;2.54;100.00;100185.16;5034712;28;20049;-82
2024/01/14 03:15:25;;;;;;;16.75;7.22;;;;;;;2.53;100.00;100179.97;5049488;28;20036;-81
2024/01/14 03:17:53;;;;;;;14.27;7.32;;;;;;;2.54;100.00;100190.31;5031254;28;20130;-80
2024/01/14 03:20:19;;;;;;;10.93;6.53;;;;;;;2.55;100.00;100186.03;5044151;28;20797;-84
2024/01/14 03:22:48;;;;;;;14.95;7.75;;;;;;;2.53;100.00;100185.13;5023818;28;20040;-81
2024/01/14 03:25:15;;;;;;;11.68;5.25;;;;;;;2.54;100.00;100185.16;5034519;28;20037;-82
2024/01/14 03:27:41;;;;;;;14.80;7.32;;;;;;;2.54;100.00;100177.41;5041627;28;20560;-83
2024/01/14 03:30:08;;;;;;;10.40;5.47;;;;;;;2.55;100.00;100184.31;5031512;28;20040;-83
2024/01/14 03:32:35;;;;;;;12.02;5.68;;;;;;;2.54;100.00;100180.00;5034026;28;20055;-82
2024/01/14 03:35:02;;;;;;;18.17;8.05;;;;;;;2.53;100.00;100179.97;5038186;28;20399;-82
2024/01/14 03:37:29;;;;;;;16.20;7.35;;;;;;;2.48;100.00;100177.31;5036297;28;20040;-82
2024/01/14 03:39:58;;;;;;;19.20;7.25;;;;;;;2.50;100.00;100185.94;5051479;28;20041;-82
2024/01/14 03:42:24;;;;;;;12.90;7.40;;;;;;;2.50;100.00;100185.94;5046564;28;20137;-82
2024/01/14 03:44:52;;;;;;;14.88;7.75;;;;;;;2.53;100.00;100183.44;5066864;28;20125;-83
2024/01/14 03:47:18;;;;;;;15.00;7.07;;;;;;;2.52;100.00;100176.53;5050118;28;20090;-82
2024/01/14 03:49:45;;;;;;;16.77;7.72;;;;;;;2.47;100.00;100167.84;5059898;28;20452;-82
2024/01/14 03:52:14;;;;;;;18.48;8.38;;;;;;;2.49;100.00;100168.75;5042257;28;20083;-82
2024/01/14 03:54:43;;;;;;;10.48;6.30;;;;;;;2.54;100.00;100173.97;5039117;28;20151;-82
2024/01/14 03:57:09;;;;;;;11.80;7.10;;;;;;;2.56;100.00;100175.72;5027046;28;20046;-81
2024/01/14 03:59:36;;;;;;;12.18;6.32;;;;;;;2.57;100.00;100169.72;5026655;28;20045;-82
2024/01/14 04:02:03;;;;;;;13.60;6.60;;;;;;;2.59;100.00;100170.59;5045352;28;20067;-82
2024/01/14 04:04:29;;;;;;;12.95;5.38;;;;;;;2.59;100.00;100173.19;5014054;28;20037;-83
2024/01/14 04:06:56;;;;;;;8.60;4.63;;;;;;;2.59;100.00;100156.81;5041963;28;20045;-82
2024/01/14 04:09:22;;;;;;;8.35;4.97;;;;;;;2.60;100.00;100159.41;5039382;28;20107;-81
2024/01/14 04:11:49;;;;;;;5.78;3.75;;;;;;;2.63;100.00;100163.78;5028055;28;20037;-81
2024/01/14 04:14:18;;;;;;;11.57;4.60;;;;;;;2.64;100.00;100161.19;5005606;28;20037;-81
2024/01/14 04:16:46;;;;;;;7.10;4.25;;;;;;;2.64;100.00;100157.75;5020029;28;20536;-79
2024/01/14 04:19:13;;;;;;;10.60;4.18;;;;;;;2.66;100.00;100163.84;5033733;28;20119;-81
2024/01/14 04:21:41;;;;;;;9.57;5.13;;;;;;;2.62;100.00;100169.78;5043750;28;20577;-82
2024/01/14 04:24:08;;;;;;;12.25;4.22;;;;;;;2.64;100.00;100168.94;5032441;28;20037;-82
2024/01/14 04:26:38;;;;;;;8.40;4.90;;;;;;;2.65;100.00;100165.53;5011989;28;20138;-81
2024/01/14 04:29:04;;;;;;;10.98;4.55;;;;;;;2.64;100.00;100166.38;5022827;28;20581;-81
2024/01/14 04:31:31;;;;;;;9.27;5.38;;;;;;;2.66;100.00;100163.84;5012823;28;20099;-81
2024/01/14 04:33:59;;;;;;;8.43;3.80;;;;;;;2.63;100.00;100158.59;5008372;28;20033;-81
2024/01/14 04:36:26;;;;;;;5.78;3.72;;;;;;;2.62;100.00;100156.84;5007624;28;20125;-82
2024/01/14 04:38:56;;;;;;;6.68;3.60;;;;;;;2.60;100.00;100166.31;5026501;28;20059;-80
2024/01/14 04:41:25;;;;;;;5.78;3.47;;;;;;;2.57;100.00;100161.06;5030354;28;20090;-80
2024/01/14 04:43:52;;;;;;;4.20;2.55;;;;;;;2.60;100.00;100164.59;5014234;28;20041;-83
2024/01/14 04:46:19;;;;;;;5.00;2.90;;;;;;;2.59;100.00;100168.00;5043065;28;20137;-83
2024/01/14 04:48:46;;;;;;;3.67;2.80;;;;;;;2.56;100.00;100157.63;5012057;28;20045;-83
2024/01/14 04:51:13;;;;;;;5.57;3.45;;;;;;;2.55;100.00;100153.31;5034824;28;20091;-81
2024/01/14 04:53:39;;;;;;;3.38;2.65;;;;;;;2.58;100.00;100144.72;5039994;28;20041;-84
2024/01/14 04:56:07;;;;;;;6.97;3.20;;;;;;;2.56;100.00;100154.19;5028073;28;20455;-82
2024/01/14 04:58:34;;;;;;;8.68;2.47;;;;;;;2.58;100.00;100155.06;5060299;28;20052;-81
2024/01/14 05:01:01;;;;;;;4.70;2.88;;;;;;;2.56;100.00;100143.88;5045726;28;20133;-81
2024/01/14 05:03:27;;;;;;;7.78;3.13;;;;;;;2.55;100.00;100150.72;5031128;28;20045;-81
2024/01/14 05:05:54;;;;;;;4.45;3.10;;;;;;;2.54;100.00;100150.72;5023749;28;20045;-81
2024/01/14 05:08:21;;;;;;;6.10;2.30;;;;;;;2.54;100.00;100143.81;5039602;28;20110;-82
2024/01/14 05:10:47;;;;;;;5.57;2.15;;;;;;;2.54;100.00;100130.91;5022717;28;20057;-81
2024/01/14 05:13:14;;;;;;;8.93;2.90;;;;;;;2.52;100.00;100142.09;5040051;28;20387;-80
2024/01/14 05:15:43;;;;;;;8.00;2.38;;;;;;;2.52;100.00;100136.91;5019921;28;20049;-81
2024/01/14 05:18:09;;;;;;;5.70;2.45;;;;;;;2.54;100.00;100135.22;5026585;28;20136;-82
2024/01/14 05:20:39;;;;;;;4.95;2.03;;;;;;;2.55;100.00;100131.78;5034368;28;20148;-81
2024/01/14 05:23:09;;;;;;;13.65;3.58;;;;;;;2.46;100.00;100128.22;5033269;28;20064;-81
2024/01/14 05:25:35;;;;;;;7.35;2.15;;;;;;;2.37;100.00;100129.78;5028451;28;20044;-81
2024/01/14 05:28:02;;;;;;;5.90;2.35;;;;;;;2.38;100.00;100134.09;5036723;28;20132;-81
2024/01/14 05:30:28;;;;;;;9.63;3.25;;;;;;;2.30;100.00;100124.50;5054226;28;20049;-81
2024/01/14 05:32:55;;;;;;;4.80;2.30;;;;;;;2.26;100.00;100125.31;5051891;28;20129;-83
2024/01/14 05:35:21;;;;;;;2.47;2.22;;;;;;;2.25;100.00;100122.69;5056877;28;20037;-81
2024/01/14 05:37:48;;;;;;;6.47;2.67;;;;;;;2.26;100.00;100130.47;5042239;28;20041;-83
2024/01/14 05:40:14;;;;;;;5.70;2.38;;;;;;;2.34;100.00;100129.75;5043527;28;20041;-81
2024/01/14 05:42:43;;;;;;;5.97;2.33;;;;;;;2.39;100.00;100122.94;5045095;28;20037;-82
2024/01/14 05:45:11;;;;;;;5.10;2.47;;;;;;;2.35;100.00;100116.84;5028224;28;20041;-84
2024/01/14 05:47:41;;;;;;;8.85;2.55;;;;;;;2.32;100.00;100114.19;5039927;28;20045;-80
2024/01/14 05:50:09;;;;;;;3.08;2.13;;;;;;;2.27;100.00;100113.28;5039315;28;20225;-83
2024/01/14 05:52:35;;;;;;;4.75;1.98;;;;;;;2.33;100.00;100122.81;5036351;28;20042;-81
2024/01/14 05:55:08;;;;;;;3.35;1.30;;;;;;;2.32;100.00;100127.09;5024875;28;20426;-80
2024/01/14 05:57:34;;;;;;;6.32;2.28;;;;;;;2.30;100.00;100124.50;5037646;28;20049;-81
2024/01/14 06:00:01;;;;;;;4.93;2.28;;;;;;;2.31;100.00;100120.22;5022278;28;20145;-83
2024/01/14 06:02:27;;;;;;;3.95;2.33;;;;;;;2.34;100.00;100125.44;5042408;28;20050;-81
2024/01/14 06:04:54;;;;;;;6.22;3.13;;;;;;;2.35;100.00;100128.88;5025211;28;20117;-81
2024/01/14 06:07:20;;;;;;;6.63;3.00;;;;;;;2.36;100.00;100121.16;5026268;28;20045;-81
2024/01/14 06:09:47;;;;;;;6.10;1.98;;;;;;;2.39;100.00;100113.47;5049546;28;20052;-81
2024/01/14 06:12:16;;;;;;;5.10;2.17;;;;;;;2.39;100.00;100112.59;5026738;28;20051;-81
2024/01/14 06:14:42;;;;;;;8.77;2.55;;;;;;;2.43;100.00;100107.50;5025941;28;20132;-82
2024/01/14 06:17:09;;;;;;;11.68;2.58;;;;;;;2.42;100.00;100107.47;5040886;28;20068;-81
2024/01/14 06:19:36;;;;;;;5.40;2.17;;;;;;;2.44;100.00;100113.53;5035054;28;20272;-81
2024/01/14 06:22:02;;;;;;;8.52;2.92;;;;;;;2.47;100.00;100108.41;5019485;28;20492;-81
2024/01/14 06:24:29;;;;;;;5.43;2.17;;;;;;;2.47;100.00;100100.66;5023471;28;20044;-84
2024/01/14 06:26:56;;;;;;;3.70;1.83;;;;;;;2.41;100.00;100106.63;5041261;28;20041;-83
2024/01/14 06:29:23;;;;;;;5.90;2.05;;;;;;;2.30;100.00;100105.56;5027380;28;20045;-81
2024/01/14 06:31:52;;;;;;;3.42;1.65;;;;;;;2.20;100.00;100112.28;5026375;28;20040;-81
2024/01/14 06:34:18;;;;;;;12.45;2.88;;;;;;;2.12;100.00;100112.16;5029186;28;20077;-83
2024/01/14 06:36:45;;;;;;;5.88;2.60;;;;;;;2.14;100.00;100123.38;5028948;28;20056;-81
2024/01/14 06:39:12;;;;;;;11.10;2.58;;;;;;;2.14;100.00;100117.38;5056029;28;20453;-80
2024/01/14 06:41:45;;;;;;;6.15;2.00;;;;;;;2.14;100.00;100118.22;5027960;28;20063;-83
2024/01/14 06:44:14;;;;;;;5.32;2.42;;;;;;;2.22;100.00;100118.34;5059599;28;20044;-81
2024/01/14 06:46:44;;;;;;;12.48;3.70;;;;;;;2.21;100.00;100102.84;5032608;28;20045;-82
2024/01/14 06:49:10;;;;;;;5.45;2.90;;;;;;;2.20;100.00;100106.25;5055735;28;20510;-81
2024/01/14 06:51:46;;;;;;;5.50;2.58;;;;;;;2.14;100.00;100109.63;5049193;28;20053;-81
2024/01/14 06:54:14;;;;;;;5.40;2.65;;;;;;;2.11;100.00;100106.97;5033106;28;20380;-81
2024/01/14 06:56:49;;;;;;;5.72;2.13;;;;;;;2.17;100.00;100108.81;5025055;28;20106;-82
2024/01/14 06:59:19;;;;;;;14.05;2.28;;;;;;;2.18;100.00;100102.78;5052451;28;20048;-81
2024/01/14 07:01:46;;;;;;;6.72;2.65;;;;;;;2.18;100.00;100102.78;5029122;28;20057;-81
2024/01/14 07:04:13;;;;;;;5.88;1.77;;;;;;;2.11;100.00;100101.81;5029185;28;20045;-81
2024/01/14 07:06:40;;;;;;;9.10;1.80;;;;;;;2.10;100.00;100107.81;5034306;28;20384;-82
2024/01/14 07:09:08;;;;;;;5.20;1.88;;;;;;;2.09;100.00;100103.50;5055992;28;20060;-83
2024/01/14 07:11:35;;;;;;;7.95;2.72;;;;;;;2.12;100.00;100100.97;5029684;28;20533;-82
2024/01/14 07:14:05;;;;;;;6.78;2.28;;;;;;;2.13;100.00;100103.56;5060069;28;20126;-81
2024/01/14 07:16:32;;;;;;;10.38;3.35;;;;;;;2.14;100.00;100101.88;5034110;28;20407;-81
2024/01/14 07:18:58;;;;;;;6.30;2.00;;;;;;;2.18;100.00;100100.19;5048543;28;21147;-80
2024/01/14 07:21:25;;;;;;;4.95;3.17;;;;;;;2.18;100.00;100100.19;5031226;28;20144;-82
2024/01/14 07:23:52;;;;;;;15.30;3.08;;;;;;;2.20;100.00;100091.63;5032398;28;20041;-80
2024/01/14 07:26:20;;;;;;;5.78;2.92;;;;;;;2.22;100.00;100092.53;5045692;28;20511;-83
2024/01/14 07:28:46;;;;;;;11.57;3.05;;;;;;;2.18;100.00;100093.31;5032268;28;20041;-83
2024/01/14 07:31:18;;;;;;;10.13;3.63;;;;;;;2.19;100.00;100091.59;5041347;28;20056;-82
2024/01/14 07:33:45;;;;;;;8.40;3.15;;;;;;;2.18;100.00;100095.91;5040722;28;20048;-81
2024/01/14 07:36:12;;;;;;;9.95;2.67;;;;;;;2.19;100.00;100094.19;5047894;28;20526;-83
2024/01/14 07:38:38;;;;;;;9.43;2.97;;;;;;;2.21;100.00;100093.38;5049167;28;20056;-82
2024/01/14 07:41:08;;;;;;;5.57;3.90;;;;;;;2.26;100.00;100102.06;5046074;28;20051;-82
2024/01/14 07:43:35;;;;;;;3.78;2.35;;;;;;;2.28;100.00;100100.38;5058536;28;20044;-83
2024/01/14 07:46:02;;;;;;;14.43;4.50;;;;;;;2.26;100.00;100099.47;5032726;28;20116;-82
2024/01/14 07:48:28;;;;;;;14.40;5.03;;;;;;;2.30;100.00;100097.81;5050432;28;20118;-81
2024/01/14 07:50:55;;;;;;;4.95;2.97;;;;;;;2.25;100.00;100099.47;5059022;28;20964;-82
2024/01/14 07:53:22;;;;;;;9.13;3.20;;;;;;;2.35;100.00;100105.63;5044365;28;20139;-81
2024/01/14 07:55:50;;;;;;;7.05;3.10;;;;;;;2.35;100.00;100093.59;5044804;28;20654;-81
2024/01/14 07:58:16;;;;;;;11.00;3.38;;;;;;;2.33;100.00;100097.84;5057374;28;20103;-83
2024/01/14 08:00:45;;;;;;;14.95;6.03;;;;;;;2.35;100.00;100093.59;5042680;28;20599;-81
2024/01/14 08:03:12;;;;;;;11.82;3.15;;;;;;;2.36;100.00;100097.03;5057871;28;20097;-81
2024/01/14 08:05:39;;;;;;;17.02;3.55;;;;;;;2.35;100.00;100103.03;5046515;28;20053;-82
2024/01/14 08:08:07;;;;;;;15.95;5.90;;;;;;;2.31;100.00;100076.31;5054833;28;20136;-81
2024/01/14 08:10:34;;;;;;;8.35;3.60;;;;;;;2.29;100.00;100078.88;5025389;28;20041;-81
2024/01/14 08:13:01;;;;;;;10.98;3.53;;;;;;;2.25;100.00;100087.41;5041973;28;20044;-79
2024/01/14 08:15:27;;;;;;;9.48;3.22;;;;;;;2.24;100.00;100085.69;5045627;28;20064;-81
2024/01/14 08:17:54;;;;;;;12.85;3.92;;;;;;;2.23;100.00;100091.69;5062428;28;20072;-81
2024/01/14 08:20:21;;;;;;;6.90;2.95;;;;;;;2.20;100.00;100088.19;5043479;28;20041;-81
2024/01/14 08:22:50;;;;;;;8.07;4.22;;;;;;;2.25;100.00;100087.41;5045945;28;20041;-81
2024/01/14 08:25:20;;;;;;;4.85;2.60;;;;;;;2.33;100.00;100087.53;5031474;28;20041;-82
2024/01/14 08:27:55;;;;;;;8.13;3.13;;;;;;;2.39;100.00;100089.34;5032546;28;21356;-81
2024/01/14 08:30:22;;;;;;;6.38;3.78;;;;;;;2.44;100.00;100090.28;5061548;28;20511;-84
2024/01/14 08:32:54;;;;;;;8.35;2.80;;;;;;;2.46;100.00;100081.72;5041790;28;20515;-81
2024/01/14 08:35:23;;;;;;;8.57;3.42;;;;;;;2.58;100.00;100088.78;5032059;28;20037;-81
2024/01/14 08:37:50;;;;;;;18.33;5.07;;;;;;;2.59;100.00;100082.75;5047801;28;20130;-82
2024/01/14 08:40:17;;;;;;;14.27;3.65;;;;;;;2.63;100.00;100081.06;5026907;28;20136;-82
2024/01/14 08:42:44;;;;;;;10.45;3.63;;;;;;;2.76;100.00;100080.38;5031718;28;20511;-81
2024/01/14 08:45:14;;;;;;;14.85;3.88;;;;;;;2.77;100.00;100076.97;5062299;28;20052;-82
2024/01/14 08:47:45;;;;;;;6.45;4.32;;;;;;;2.83;100.00;100073.63;5048399;28;20052;-81
2024/01/14 08:50:12;;;;;;;13.05;4.50;;;;;;;2.89;100.00;100073.66;5039242;28;20044;-82
2024/01/14 08:52:39;;;;;;;11.52;4.32;;;;;;;2.88;100.00;100068.47;5030647;28;20137;-81
2024/01/14 08:55:08;;;;;;;11.52;3.70;;;;;;;2.85;100.00;100074.47;5031250;28;20044;-81
2024/01/14 08:57:35;;;;;;;16.23;3.70;;;;;;;2.87;100.00;100079.66;5045320;28;20059;-83
2024/01/14 09:00:04;;;;;;;17.02;6.28;;;;;;;2.91;100.00;100071.97;5029507;28;20052;-81
2024/01/14 09:02:31;;;;;;;10.07;3.70;;;;;;;2.93;100.00;100070.31;5030788;28;20376;-83
2024/01/14 09:05:00;;;;;;;12.88;4.78;;;;;;;2.90;100.00;100077.13;5033454;28;20037;-83
2024/01/14 09:07:27;;;;;;;9.02;3.83;;;;;;;3.02;100.00;100079.00;5047337;28;20064;-82
2024/01/14 09:09:54;;;;;;;12.35;4.22;;;;;;;3.03;100.00;100067.81;5034246;28;20102;-83
2024/01/14 09:12:20;;;;;;;10.90;4.00;;;;;;;3.02;100.00;100069.53;5047919;28;20052;-82
2024/01/14 09:14:47;;;;;;;11.02;4.47;;;;;;;2.96;100.00;100077.22;5030519;28;20049;-83
2024/01/14 09:17:15;;;;;;;10.77;4.80;;;;;;;2.98;100.00;100078.09;5049339;28;20110;-81
2024/01/14 09:19:42;;;;;;;16.73;5.80;;;;;;;3.05;100.00;100082.50;5064530;28;20515;-81
2024/01/14 09:22:09;;;;;;;16.05;6.13;;;;;;;3.10;100.00;100080.84;5031822;28;20053;-82
2024/01/14 09:24:35;;;;;;;8.48;4.43;;;;;;;3.06;100.00;100076.47;5031050;28;20099;-81
2024/01/14 09:27:03;;;;;;;12.00;4.63;;;;;;;2.97;100.00;100074.66;5032393;28;20064;-80
2024/01/14 09:29:31;;;;;;;16.20;5.05;;;;;;;2.91;100.00;100069.41;5031412;28;20076;-81
2024/01/14 09:31:57;;;;;;;8.52;4.70;;;;;;;2.95;100.00;100070.31;5032208;28;20432;-81
2024/01/14 09:34:24;;;;;;;8.95;4.30;;;;;;;3.02;100.00;100068.66;5047291;28;20078;-81
2024/01/14 09:36:50;;;;;;;8.98;4.55;;;;;;;2.97;100.00;100059.13;5041461;28;20400;-81
2024/01/14 09:39:17;;;;;;;9.50;4.28;;;;;;;2.92;100.00;100060.81;5034087;28;20138;-80
2024/01/14 09:42:02;;;;;;;9.65;5.05;;;;;;;3.01;100.00;100069.50;5038678;28;20130;-81
2024/01/14 09:44:29;;;;;;;7.40;5.60;;;;;;;2.99;100.00;100072.09;5047889;28;20130;-81
2024/01/14 09:46:56;;;;;;;9.40;3.58;;;;;;;3.11;100.00;100061.88;5029679;28;20143;-83
2024/01/14 09:49:22;;;;;;;5.30;3.60;;;;;;;3.14;100.00;100073.97;5027770;28;20141;-80
2024/01/14 09:51:51;;;;;;;7.28;3.65;;;;;;;3.11;100.00;100068.78;5042368;28;20049;-82
2024/01/14 09:54:17;;;;;;;8.60;4.90;;;;;;;3.11;100.00;100073.94;5033502;28;20114;-82
2024/01/14 09:56:46;;;;;;;7.18;3.92;;;;;;;3.04;100.00;100060.09;5050788;28;20056;-81
2024/01/14 09:59:20;;;;;;;9.38;5.47;;;;;;;2.95;100.00;100063.41;5038423;28;20047;-81
2024/01/14 10:01:49;;;;;;;8.20;5.57;;;;;;;2.98;100.00;100057.41;5030125;28;20149;-81
2024/01/14 10:04:18;;;;;;;7.85;4.97;;;;;;;2.96;100.00;100057.41;5042937;28;20135;-83
2024/01/14 10:06:45;;;;;;;8.27;4.88;;;;;;;2.96;100.00;100047.06;5022170;28;20044;-80
2024/01/14 10:09:12;;;;;;;8.30;5.43;;;;;;;2.98;100.00;100047.94;5028460;28;20072;-82
2024/01/14 10:11:39;;;;;;;12.27;5.70;;;;;;;3.00;100.00;100036.75;5046774;28;20048;-82
2024/01/14 10:14:07;;;;;;;12.05;7.00;;;;;;;3.05;100.00;100035.06;5028744;28;20443;-82
2024/01/14 10:16:42;;;;;;;11.35;6.93;;;;;;;3.16;100.00;100030.91;5061621;28;20098;-83
2024/01/14 10:19:09;;;;;;;12.23;6.35;;;;;;;3.23;100.00;100037.00;5031658;28;20067;-81
2024/01/14 10:21:35;;;;;;;9.30;5.78;;;;;;;3.27;100.00;100033.59;5031323;28;20132;-81
2024/01/14 10:24:03;;;;;;;15.98;7.00;;;;;;;3.29;100.00;100022.41;5030562;28;20044;-85
2024/01/14 10:26:30;;;;;;;9.98;6.90;;;;;;;3.18;100.00;100030.91;5030690;28;20041;-81
2024/01/14 10:29:04;;;;;;;10.73;5.57;;;;;;;3.15;100.00;100024.00;5048514;28;20076;-81
2024/01/14 10:31:34;;;;;;;8.98;5.15;;;;;;;3.26;100.00;100024.09;5057660;28;20037;-82
2024/01/14 10:34:02;;;;;;;11.20;6.88;;;;;;;3.37;100.00;100021.66;5034990;28;20053;-81
2024/01/14 10:36:29;;;;;;;10.38;6.78;;;;;;;3.34;100.00;100014.72;5034357;28;20045;-80
2024/01/14 10:39:01;;;;;;;7.00;4.20;;;;;;;3.26;100.00;100017.22;5042545;28;20044;-81
2024/01/14 10:41:31;;;;;;;7.95;5.00;;;;;;;3.22;100.00;100006.81;5023615;28;20037;-80
2024/01/14 10:43:58;;;;;;;5.88;4.10;;;;;;;3.24;100.00;100005.13;5030386;28;20416;-81
2024/01/14 10:46:31;;;;;;;6.22;4.15;;;;;;;3.21;100.00;99995.63;5022637;28;20044;-79
2024/01/14 10:49:08;;;;;;;10.57;5.20;;;;;;;3.23;100.00;99996.47;5044907;28;20119;-82
2024/01/14 10:51:43;;;;;;;9.38;5.28;;;;;;;3.12;100.00;99992.94;5030961;28;20048;-82
2024/01/14 10:54:35;;;;;;;8.13;5.43;;;;;;;3.16;100.00;99993.84;5044091;28;20059;-82
2024/01/14 10:57:35;;;;;;;8.88;5.50;;;;;;;3.14;100.00;99983.44;5029335;28;20102;-84
2024/01/14 11:00:10;;;;;;;9.25;5.53;;;;;;;3.06;100.00;99985.97;5029948;28;20083;-82
2024/01/14 11:02:39;;;;;;;9.23;5.75;;;;;;;3.00;100.00;99985.03;5041933;28;20061;-80
2024/01/14 11:05:07;;;;;;;7.60;5.18;;;;;;;3.01;100.00;99984.19;5046325;28;20044;-82
2024/01/14 11:07:35;;;;;;;8.68;4.85;;;;;;;2.88;100.00;99970.25;5036917;28;20036;-82
2024/01/14 11:10:04;;;;;;;6.65;4.55;;;;;;;2.89;100.00;99972.00;5043580;28;20045;-81
2024/01/14 11:12:40;;;;;;;15.05;9.60;;;;;;;2.76;100.00;99971.84;5026776;28;20044;-82
2024/01/14 11:15:30;;;;;;;11.98;7.10;;;;;;;2.73;100.00;99966.63;5057647;28;20064;-81
2024/01/14 11:18:31;;;;;;;8.75;5.40;;;;;;;2.58;100.00;99956.13;5041122;28;20476;-82
2024/01/14 11:21:29;;;;;;;11.45;5.93;;;;;;;2.64;100.00;99958.78;5031745;28;20072;-81
2024/01/14 11:23:57;;;;;;;10.15;6.32;;;;;;;2.59;100.00;99961.28;5020990;28;20048;-81
2024/01/14 11:26:30;;;;;;;10.77;6.97;;;;;;;2.61;100.00;99958.75;5062393;28;20135;-82
2024/01/14 11:29:01;;;;;;;15.68;8.32;;;;;;;2.59;100.00;99952.69;5033860;28;20044;-83